Kure Beach, North Carolina
Current Conditions -  °F | °C
As of 6:35 PM on Saturday 20 Dec 2014 (Local Time) from KSUT Reporting Station
Overcast Overcast  
Wind Chill: 41°   Ceiling: 1300
Heat Index: 44°   Visibility: 10mi
Dew Point: 43°   Wind: 6mph
Humidity: 95%   Direction: 40°NE
Pressure: 30.24"   Gusts: NA
Location:  34°N, 77.91°W
Report Text: KSUT 202335Z AUTO 04005KT 10SM OVC013 07/06 A3024 RMK AO2 T00680060
Loading
Personal Weather Stations






























Interactive Weather Map New forecast layout! Learn more

10-Day Weather Forecast

Advertisements
Track Severe Weather on mobile